sensor_id;sensor_type;location;lat;lon;timestamp;P1;durP1;ratioP1;P2;durP2;ratioP2
33786;SDS011;29742;51.540;9.358;2023-06-10T00:03:23;1.58;;;1.40;;
33786;SDS011;29742;51.540;9.358;2023-06-10T00:08:24;2.08;;;1.88;;
33786;SDS011;29742;51.540;9.358;2023-06-10T00:13:25;2.03;;;1.42;;
33786;SDS011;29742;51.540;9.358;2023-06-10T00:18:26;2.25;;;1.80;;
33786;SDS011;29742;51.540;9.358;2023-06-10T00:23:27;1.95;;;1.75;;
33786;SDS011;29742;51.540;9.358;2023-06-10T00:28:29;2.15;;;1.95;;
33786;SDS011;29742;51.540;9.358;2023-06-10T00:33:29;1.55;;;1.40;;
33786;SDS011;29742;51.540;9.358;2023-06-10T00:38:30;2.40;;;1.65;;
33786;SDS011;29742;51.540;9.358;2023-06-10T00:43:30;1.90;;;1.80;;
33786;SDS011;29742;51.540;9.358;2023-06-10T00:48:30;1.70;;;1.60;;
33786;SDS011;29742;51.540;9.358;2023-06-10T00:53:32;1.90;;;1.58;;
33786;SDS011;29742;51.540;9.358;2023-06-10T00:58:33;1.50;;;1.40;;
33786;SDS011;29742;51.540;9.358;2023-06-10T01:03:33;1.77;;;1.60;;
33786;SDS011;29742;51.540;9.358;2023-06-10T01:08:41;1.83;;;1.53;;
33786;SDS011;29742;51.540;9.358;2023-06-10T01:13:47;1.80;;;1.30;;
33786;SDS011;29742;51.540;9.358;2023-06-10T01:18:48;1.38;;;1.27;;
33786;SDS011;29742;51.540;9.358;2023-06-10T01:23:49;2.22;;;1.42;;
33786;SDS011;29742;51.540;9.358;2023-06-10T01:28:51;1.55;;;1.42;;
33786;SDS011;29742;51.540;9.358;2023-06-10T01:33:54;1.30;;;1.05;;
33786;SDS011;29742;51.540;9.358;2023-06-10T01:38:55;2.03;;;1.40;;
33786;SDS011;29742;51.540;9.358;2023-06-10T01:43:56;1.20;;;1.10;;
33786;SDS011;29742;51.540;9.358;2023-06-10T01:48:56;1.30;;;1.20;;
33786;SDS011;29742;51.540;9.358;2023-06-10T01:53:57;1.50;;;1.40;;
33786;SDS011;29742;51.540;9.358;2023-06-10T01:58:57;1.40;;;1.30;;
33786;SDS011;29742;51.540;9.358;2023-06-10T02:03:59;1.15;;;1.05;;
33786;SDS011;29742;51.540;9.358;2023-06-10T02:08:59;1.38;;;1.25;;
33786;SDS011;29742;51.540;9.358;2023-06-10T02:13:59;1.25;;;1.15;;
33786;SDS011;29742;51.540;9.358;2023-06-10T02:19:00;1.15;;;0.95;;
33786;SDS011;29742;51.540;9.358;2023-06-10T02:24:00;1.20;;;1.10;;
33786;SDS011;29742;51.540;9.358;2023-06-10T02:29:01;1.58;;;1.42;;
33786;SDS011;29742;51.540;9.358;2023-06-10T02:34:01;1.42;;;1.33;;
33786;SDS011;29742;51.540;9.358;2023-06-10T02:39:03;1.40;;;1.20;;
33786;SDS011;29742;51.540;9.358;2023-06-10T02:44:04;2.13;;;1.48;;
33786;SDS011;29742;51.540;9.358;2023-06-10T02:49:04;1.60;;;1.50;;
33786;SDS011;29742;51.540;9.358;2023-06-10T02:54:05;1.30;;;1.20;;
33786;SDS011;29742;51.540;9.358;2023-06-10T02:59:05;1.30;;;1.20;;
33786;SDS011;29742;51.540;9.358;2023-06-10T03:04:07;1.70;;;1.30;;
33786;SDS011;29742;51.540;9.358;2023-06-10T03:09:07;1.35;;;1.08;;
33786;SDS011;29742;51.540;9.358;2023-06-10T03:14:08;1.60;;;1.40;;
33786;SDS011;29742;51.540;9.358;2023-06-10T03:19:08;1.40;;;1.20;;
33786;SDS011;29742;51.540;9.358;2023-06-10T03:24:08;1.00;;;0.90;;
33786;SDS011;29742;51.540;9.358;2023-06-10T03:29:10;1.25;;;1.15;;
33786;SDS011;29742;51.540;9.358;2023-06-10T03:34:11;1.38;;;1.27;;
33786;SDS011;29742;51.540;9.358;2023-06-10T03:39:11;1.10;;;1.00;;
33786;SDS011;29742;51.540;9.358;2023-06-10T03:44:11;1.50;;;1.40;;
33786;SDS011;29742;51.540;9.358;2023-06-10T03:49:12;1.45;;;1.33;;
33786;SDS011;29742;51.540;9.358;2023-06-10T03:54:13;1.20;;;1.00;;
33786;SDS011;29742;51.540;9.358;2023-06-10T03:59:13;1.42;;;1.30;;
33786;SDS011;29742;51.540;9.358;2023-06-10T04:04:14;1.80;;;1.10;;
33786;SDS011;29742;51.540;9.358;2023-06-10T04:09:16;1.17;;;1.08;;
33786;SDS011;29742;51.540;9.358;2023-06-10T04:14:17;1.23;;;1.13;;
33786;SDS011;29742;51.540;9.358;2023-06-10T04:19:17;1.30;;;1.20;;
33786;SDS011;29742;51.540;9.358;2023-06-10T04:24:17;1.65;;;1.45;;
33786;SDS011;29742;51.540;9.358;2023-06-10T04:29:18;1.63;;;1.20;;
33786;SDS011;29742;51.540;9.358;2023-06-10T04:34:18;1.63;;;1.33;;
33786;SDS011;29742;51.540;9.358;2023-06-10T04:39:19;1.40;;;1.30;;
33786;SDS011;29742;51.540;9.358;2023-06-10T04:44:19;1.15;;;1.00;;
33786;SDS011;29742;51.540;9.358;2023-06-10T04:49:21;0.88;;;0.85;;
33786;SDS011;29742;51.540;9.358;2023-06-10T04:54:21;0.88;;;0.88;;
33786;SDS011;29742;51.540;9.358;2023-06-10T04:59:21;1.20;;;1.10;;
33786;SDS011;29742;51.540;9.358;2023-06-10T05:04:22;2.05;;;1.25;;
33786;SDS011;29742;51.540;9.358;2023-06-10T05:09:22;1.90;;;1.20;;
33786;SDS011;29742;51.540;9.358;2023-06-10T05:14:23;1.58;;;1.20;;
33786;SDS011;29742;51.540;9.358;2023-06-10T05:19:23;1.02;;;0.95;;
33786;SDS011;29742;51.540;9.358;2023-06-10T05:24:23;1.17;;;1.08;;
33786;SDS011;29742;51.540;9.358;2023-06-10T05:29:24;1.05;;;0.85;;
33786;SDS011;29742;51.540;9.358;2023-06-10T05:34:24;1.85;;;1.50;;
33786;SDS011;29742;51.540;9.358;2023-06-10T05:39:24;1.17;;;1.08;;
33786;SDS011;29742;51.540;9.358;2023-06-10T05:44:25;1.48;;;1.27;;
33786;SDS011;29742;51.540;9.358;2023-06-10T05:49:25;1.52;;;1.42;;
33786;SDS011;29742;51.540;9.358;2023-06-10T05:54:26;1.58;;;1.25;;
33786;SDS011;29742;51.540;9.358;2023-06-10T05:59:27;1.10;;;1.00;;
33786;SDS011;29742;51.540;9.358;2023-06-10T06:04:27;1.27;;;1.15;;
33786;SDS011;29742;51.540;9.358;2023-06-10T06:09:27;1.20;;;1.10;;
33786;SDS011;29742;51.540;9.358;2023-06-10T06:14:30;1.10;;;1.00;;
33786;SDS011;29742;51.540;9.358;2023-06-10T06:19:31;1.27;;;1.17;;
33786;SDS011;29742;51.540;9.358;2023-06-10T06:24:31;1.20;;;1.10;;
33786;SDS011;29742;51.540;9.358;2023-06-10T06:29:31;1.40;;;1.30;;
33786;SDS011;29742;51.540;9.358;2023-06-10T06:34:32;2.78;;;1.27;;
33786;SDS011;29742;51.540;9.358;2023-06-10T06:39:33;1.42;;;1.23;;
33786;SDS011;29742;51.540;9.358;2023-06-10T06:44:33;1.20;;;1.10;;
33786;SDS011;29742;51.540;9.358;2023-06-10T06:49:34;1.10;;;1.00;;
33786;SDS011;29742;51.540;9.358;2023-06-10T06:54:34;1.33;;;1.20;;
33786;SDS011;29742;51.540;9.358;2023-06-10T06:59:35;1.33;;;1.15;;
33786;SDS011;29742;51.540;9.358;2023-06-10T07:04:35;1.70;;;1.08;;
33786;SDS011;29742;51.540;9.358;2023-06-10T07:09:35;1.33;;;1.13;;
33786;SDS011;29742;51.540;9.358;2023-06-10T07:14:36;0.90;;;0.85;;
33786;SDS011;29742;51.540;9.358;2023-06-10T07:19:36;1.35;;;1.13;;
33786;SDS011;29742;51.540;9.358;2023-06-10T07:24:36;1.02;;;0.93;;
33786;SDS011;29742;51.540;9.358;2023-06-10T07:29:37;1.40;;;0.98;;
33786;SDS011;29742;51.540;9.358;2023-06-10T07:34:37;0.85;;;0.80;;
33786;SDS011;29742;51.540;9.358;2023-06-10T07:39:38;1.20;;;1.10;;
33786;SDS011;29742;51.540;9.358;2023-06-10T07:44:38;1.33;;;1.02;;
33786;SDS011;29742;51.540;9.358;2023-06-10T07:49:38;0.95;;;0.80;;
33786;SDS011;29742;51.540;9.358;2023-06-10T07:54:39;1.40;;;1.17;;
33786;SDS011;29742;51.540;9.358;2023-06-10T07:59:40;1.30;;;1.17;;
33786;SDS011;29742;51.540;9.358;2023-06-10T08:04:40;0.88;;;0.88;;
33786;SDS011;29742;51.540;9.358;2023-06-10T08:09:40;1.00;;;0.90;;
33786;SDS011;29742;51.540;9.358;2023-06-10T08:14:41;0.93;;;0.68;;
33786;SDS011;29742;51.540;9.358;2023-06-10T08:19:41;1.23;;;0.90;;
33786;SDS011;29742;51.540;9.358;2023-06-10T08:24:41;1.42;;;1.00;;
33786;SDS011;29742;51.540;9.358;2023-06-10T08:29:42;1.30;;;1.00;;
33786;SDS011;29742;51.540;9.358;2023-06-10T08:34:42;1.92;;;0.85;;
33786;SDS011;29742;51.540;9.358;2023-06-10T08:39:43;1.17;;;0.98;;
33786;SDS011;29742;51.540;9.358;2023-06-10T08:44:43;0.85;;;0.75;;
33786;SDS011;29742;51.540;9.358;2023-06-10T08:49:46;2.05;;;1.35;;
33786;SDS011;29742;51.540;9.358;2023-06-10T08:54:57;1.85;;;0.80;;
33786;SDS011;29742;51.540;9.358;2023-06-10T08:59:59;2.40;;;1.30;;
33786;SDS011;29742;51.540;9.358;2023-06-10T09:05:00;1.50;;;1.23;;
33786;SDS011;29742;51.540;9.358;2023-06-10T09:10:01;2.47;;;1.27;;
33786;SDS011;29742;51.540;9.358;2023-06-10T09:15:04;2.05;;;1.25;;
33786;SDS011;29742;51.540;9.358;2023-06-10T09:20:05;1.75;;;1.30;;
33786;SDS011;29742;51.540;9.358;2023-06-10T09:25:07;1.55;;;1.17;;
33786;SDS011;29742;51.540;9.358;2023-06-10T09:30:09;1.77;;;1.17;;
33786;SDS011;29742;51.540;9.358;2023-06-10T09:35:10;1.88;;;1.08;;
33786;SDS011;29742;51.540;9.358;2023-06-10T09:40:11;1.60;;;1.25;;
33786;SDS011;29742;51.540;9.358;2023-06-10T09:45:11;1.25;;;1.08;;
33786;SDS011;29742;51.540;9.358;2023-06-10T09:50:11;1.27;;;1.10;;
33786;SDS011;29742;51.540;9.358;2023-06-10T09:55:12;4.05;;;1.48;;
33786;SDS011;29742;51.540;9.358;2023-06-10T10:00:13;1.45;;;1.10;;
33786;SDS011;29742;51.540;9.358;2023-06-10T10:05:18;1.60;;;1.20;;
33786;SDS011;29742;51.540;9.358;2023-06-10T10:10:20;3.75;;;1.23;;
33786;SDS011;29742;51.540;9.358;2023-06-10T10:15:21;1.63;;;1.00;;
33786;SDS011;29742;51.540;9.358;2023-06-10T10:20:27;1.25;;;0.90;;
33786;SDS011;29742;51.540;9.358;2023-06-10T10:25:32;3.92;;;1.05;;
33786;SDS011;29742;51.540;9.358;2023-06-10T10:30:37;2.00;;;1.27;;
33786;SDS011;29742;51.540;9.358;2023-06-10T10:35:40;2.38;;;1.55;;
33786;SDS011;29742;51.540;9.358;2023-06-10T10:40:40;1.60;;;1.25;;
33786;SDS011;29742;51.540;9.358;2023-06-10T10:45:41;1.42;;;1.00;;
33786;SDS011;29742;51.540;9.358;2023-06-10T10:50:42;2.60;;;1.08;;
33786;SDS011;29742;51.540;9.358;2023-06-10T10:55:42;1.20;;;1.10;;
33786;SDS011;29742;51.540;9.358;2023-06-10T11:00:58;1.70;;;1.25;;
33786;SDS011;29742;51.540;9.358;2023-06-10T11:05:58;2.03;;;1.48;;
33786;SDS011;29742;51.540;9.358;2023-06-10T11:10:58;1.17;;;0.98;;
33786;SDS011;29742;51.540;9.358;2023-06-10T11:15:59;1.40;;;1.30;;
33786;SDS011;29742;51.540;9.358;2023-06-10T11:21:02;2.13;;;1.00;;
33786;SDS011;29742;51.540;9.358;2023-06-10T11:26:14;1.55;;;1.13;;
33786;SDS011;29742;51.540;9.358;2023-06-10T11:31:23;1.50;;;1.20;;
33786;SDS011;29742;51.540;9.358;2023-06-10T11:36:25;1.27;;;1.17;;
33786;SDS011;29742;51.540;9.358;2023-06-10T11:41:27;1.33;;;1.23;;
33786;SDS011;29742;51.540;9.358;2023-06-10T11:46:29;1.95;;;1.48;;
33786;SDS011;29742;51.540;9.358;2023-06-10T11:51:33;2.22;;;1.30;;
33786;SDS011;29742;51.540;9.358;2023-06-10T11:56:37;1.83;;;1.58;;
33786;SDS011;29742;51.540;9.358;2023-06-10T12:01:39;1.63;;;1.20;;
33786;SDS011;29742;51.540;9.358;2023-06-10T12:06:52;1.30;;;1.17;;
33786;SDS011;29742;51.540;9.358;2023-06-10T12:12:03;2.20;;;1.27;;
33786;SDS011;29742;51.540;9.358;2023-06-10T12:17:05;1.17;;;1.02;;
33786;SDS011;29742;51.540;9.358;2023-06-10T12:22:06;1.23;;;0.95;;
33786;SDS011;29742;51.540;9.358;2023-06-10T12:27:06;1.77;;;1.50;;
33786;SDS011;29742;51.540;9.358;2023-06-10T12:32:11;1.10;;;1.00;;
33786;SDS011;29742;51.540;9.358;2023-06-10T12:37:12;1.50;;;1.15;;
33786;SDS011;29742;51.540;9.358;2023-06-10T12:42:14;1.52;;;1.10;;
33786;SDS011;29742;51.540;9.358;2023-06-10T12:47:15;1.27;;;1.17;;
33786;SDS011;29742;51.540;9.358;2023-06-10T12:52:16;1.45;;;1.30;;
33786;SDS011;29742;51.540;9.358;2023-06-10T12:57:17;1.40;;;1.30;;
33786;SDS011;29742;51.540;9.358;2023-06-10T13:02:18;1.40;;;1.17;;
33786;SDS011;29742;51.540;9.358;2023-06-10T13:07:19;1.58;;;1.40;;
33786;SDS011;29742;51.540;9.358;2023-06-10T13:12:22;1.63;;;1.15;;
33786;SDS011;29742;51.540;9.358;2023-06-10T13:17:23;1.75;;;1.33;;
33786;SDS011;29742;51.540;9.358;2023-06-10T13:22:23;1.10;;;1.00;;
33786;SDS011;29742;51.540;9.358;2023-06-10T13:27:24;1.40;;;1.20;;
33786;SDS011;29742;51.540;9.358;2023-06-10T13:32:24;2.47;;;1.83;;
33786;SDS011;29742;51.540;9.358;2023-06-10T13:37:24;1.30;;;1.20;;
33786;SDS011;29742;51.540;9.358;2023-06-10T13:42:25;1.77;;;1.55;;
33786;SDS011;29742;51.540;9.358;2023-06-10T13:47:29;1.80;;;1.65;;
33786;SDS011;29742;51.540;9.358;2023-06-10T13:52:29;1.38;;;1.20;;
33786;SDS011;29742;51.540;9.358;2023-06-10T13:57:29;1.45;;;1.33;;
33786;SDS011;29742;51.540;9.358;2023-06-10T14:02:30;1.88;;;1.70;;
33786;SDS011;29742;51.540;9.358;2023-06-10T14:07:30;1.80;;;1.60;;
33786;SDS011;29742;51.540;9.358;2023-06-10T14:12:31;3.53;;;1.50;;
33786;SDS011;29742;51.540;9.358;2023-06-10T14:17:31;1.80;;;1.70;;
33786;SDS011;29742;51.540;9.358;2023-06-10T14:22:31;2.13;;;1.50;;
33786;SDS011;29742;51.540;9.358;2023-06-10T14:27:32;2.17;;;1.98;;
33786;SDS011;29742;51.540;9.358;2023-06-10T14:32:32;1.75;;;1.55;;
33786;SDS011;29742;51.540;9.358;2023-06-10T14:37:32;1.70;;;1.60;;
33786;SDS011;29742;51.540;9.358;2023-06-10T14:42:33;1.65;;;1.55;;
33786;SDS011;29742;51.540;9.358;2023-06-10T14:47:33;1.65;;;1.55;;
33786;SDS011;29742;51.540;9.358;2023-06-10T14:52:34;1.58;;;1.48;;
33786;SDS011;29742;51.540;9.358;2023-06-10T14:57:34;1.98;;;1.50;;
33786;SDS011;29742;51.540;9.358;2023-06-10T15:02:34;1.60;;;1.50;;
33786;SDS011;29742;51.540;9.358;2023-06-10T15:07:35;1.77;;;1.60;;
33786;SDS011;29742;51.540;9.358;2023-06-10T15:12:35;1.58;;;1.48;;
33786;SDS011;29742;51.540;9.358;2023-06-10T15:17:36;1.85;;;1.70;;
33786;SDS011;29742;51.540;9.358;2023-06-10T15:22:36;1.50;;;1.27;;
33786;SDS011;29742;51.540;9.358;2023-06-10T15:27:37;1.85;;;1.60;;
33786;SDS011;29742;51.540;9.358;2023-06-10T15:32:37;1.92;;;1.60;;
33786;SDS011;29742;51.540;9.358;2023-06-10T15:37:37;1.58;;;1.40;;
33786;SDS011;29742;51.540;9.358;2023-06-10T15:42:38;1.63;;;1.52;;
33786;SDS011;29742;51.540;9.358;2023-06-10T15:47:38;1.92;;;1.50;;
33786;SDS011;29742;51.540;9.358;2023-06-10T15:52:41;2.20;;;1.92;;
33786;SDS011;29742;51.540;9.358;2023-06-10T15:57:41;2.03;;;1.75;;
33786;SDS011;29742;51.540;9.358;2023-06-10T16:02:42;1.38;;;1.27;;
33786;SDS011;29742;51.540;9.358;2023-06-10T16:07:42;1.60;;;1.50;;
33786;SDS011;29742;51.540;9.358;2023-06-10T16:12:43;1.63;;;1.52;;
33786;SDS011;29742;51.540;9.358;2023-06-10T16:17:43;1.85;;;1.70;;
33786;SDS011;29742;51.540;9.358;2023-06-10T16:22:43;1.70;;;1.55;;
33786;SDS011;29742;51.540;9.358;2023-06-10T16:27:44;2.03;;;1.45;;
33786;SDS011;29742;51.540;9.358;2023-06-10T16:32:44;1.38;;;1.27;;
33786;SDS011;29742;51.540;9.358;2023-06-10T16:37:45;1.60;;;1.42;;
33786;SDS011;29742;51.540;9.358;2023-06-10T16:42:45;2.42;;;1.85;;
33786;SDS011;29742;51.540;9.358;2023-06-10T16:47:46;1.95;;;1.40;;
33786;SDS011;29742;51.540;9.358;2023-06-10T16:52:46;1.98;;;1.70;;
33786;SDS011;29742;51.540;9.358;2023-06-10T16:57:46;1.88;;;1.58;;
33786;SDS011;29742;51.540;9.358;2023-06-10T17:02:47;1.95;;;1.70;;
33786;SDS011;29742;51.540;9.358;2023-06-10T17:07:47;1.67;;;1.58;;
33786;SDS011;29742;51.540;9.358;2023-06-10T17:12:47;2.05;;;1.52;;
33786;SDS011;29742;51.540;9.358;2023-06-10T17:17:48;1.92;;;1.60;;
33786;SDS011;29742;51.540;9.358;2023-06-10T17:22:48;2.33;;;1.75;;
33786;SDS011;29742;51.540;9.358;2023-06-10T17:27:49;2.47;;;1.88;;
33786;SDS011;29742;51.540;9.358;2023-06-10T17:32:49;2.35;;;1.90;;
33786;SDS011;29742;51.540;9.358;2023-06-10T17:37:50;1.73;;;1.40;;
33786;SDS011;29742;51.540;9.358;2023-06-10T17:42:51;1.92;;;1.70;;
33786;SDS011;29742;51.540;9.358;2023-06-10T17:47:51;1.65;;;1.33;;
33786;SDS011;29742;51.540;9.358;2023-06-10T17:52:52;2.40;;;1.73;;
33786;SDS011;29742;51.540;9.358;2023-06-10T17:57:52;2.20;;;1.75;;
33786;SDS011;29742;51.540;9.358;2023-06-10T18:02:53;2.58;;;2.15;;
33786;SDS011;29742;51.540;9.358;2023-06-10T18:07:53;2.35;;;1.85;;
33786;SDS011;29742;51.540;9.358;2023-06-10T18:12:53;3.20;;;1.63;;
33786;SDS011;29742;51.540;9.358;2023-06-10T18:17:54;1.90;;;1.70;;
33786;SDS011;29742;51.540;9.358;2023-06-10T18:22:54;1.45;;;1.35;;
33786;SDS011;29742;51.540;9.358;2023-06-10T18:27:54;2.28;;;1.77;;
33786;SDS011;29742;51.540;9.358;2023-06-10T18:32:55;3.95;;;1.70;;
33786;SDS011;29742;51.540;9.358;2023-06-10T18:37:55;1.75;;;1.58;;
33786;SDS011;29742;51.540;9.358;2023-06-10T18:42:56;1.85;;;1.70;;
33786;SDS011;29742;51.540;9.358;2023-06-10T18:47:56;1.70;;;1.60;;
33786;SDS011;29742;51.540;9.358;2023-06-10T18:52:57;1.75;;;1.58;;
33786;SDS011;29742;51.540;9.358;2023-06-10T18:57:57;2.70;;;2.00;;
33786;SDS011;29742;51.540;9.358;2023-06-10T19:02:57;2.50;;;2.05;;
33786;SDS011;29742;51.540;9.358;2023-06-10T19:07:58;4.38;;;1.80;;
33786;SDS011;29742;51.540;9.358;2023-06-10T19:12:58;2.08;;;1.73;;
33786;SDS011;29742;51.540;9.358;2023-06-10T19:17:59;1.80;;;1.70;;
33786;SDS011;29742;51.540;9.358;2023-06-10T19:22:59;2.10;;;1.85;;
33786;SDS011;29742;51.540;9.358;2023-06-10T19:28:00;1.45;;;1.35;;
33786;SDS011;29742;51.540;9.358;2023-06-10T19:33:00;2.10;;;1.90;;
33786;SDS011;29742;51.540;9.358;2023-06-10T19:38:00;1.98;;;1.85;;
33786;SDS011;29742;51.540;9.358;2023-06-10T19:43:01;3.55;;;1.92;;
33786;SDS011;29742;51.540;9.358;2023-06-10T19:48:01;2.30;;;1.92;;
33786;SDS011;29742;51.540;9.358;2023-06-10T19:53:02;1.92;;;1.77;;
33786;SDS011;29742;51.540;9.358;2023-06-10T19:58:02;2.10;;;1.65;;
33786;SDS011;29742;51.540;9.358;2023-06-10T20:03:03;3.08;;;1.73;;
33786;SDS011;29742;51.540;9.358;2023-06-10T20:08:03;2.03;;;1.83;;
33786;SDS011;29742;51.540;9.358;2023-06-10T20:13:04;1.88;;;1.67;;
33786;SDS011;29742;51.540;9.358;2023-06-10T20:18:04;1.55;;;1.45;;
33786;SDS011;29742;51.540;9.358;2023-06-10T20:23:05;1.88;;;1.70;;
33786;SDS011;29742;51.540;9.358;2023-06-10T20:28:05;1.65;;;1.50;;
33786;SDS011;29742;51.540;9.358;2023-06-10T20:33:06;1.90;;;1.70;;
33786;SDS011;29742;51.540;9.358;2023-06-10T20:38:06;1.85;;;1.40;;
33786;SDS011;29742;51.540;9.358;2023-06-10T20:43:07;1.63;;;1.52;;
33786;SDS011;29742;51.540;9.358;2023-06-10T20:48:07;2.00;;;1.70;;
33786;SDS011;29742;51.540;9.358;2023-06-10T20:53:08;1.63;;;1.48;;
33786;SDS011;29742;51.540;9.358;2023-06-10T20:58:08;1.55;;;1.45;;
33786;SDS011;29742;51.540;9.358;2023-06-10T21:03:09;2.05;;;1.77;;
33786;SDS011;29742;51.540;9.358;2023-06-10T21:08:10;1.40;;;1.30;;
33786;SDS011;29742;51.540;9.358;2023-06-10T21:13:10;1.83;;;1.48;;
33786;SDS011;29742;51.540;9.358;2023-06-10T21:18:11;2.45;;;1.77;;
33786;SDS011;29742;51.540;9.358;2023-06-10T21:23:11;1.63;;;1.52;;
33786;SDS011;29742;51.540;9.358;2023-06-10T21:28:11;3.22;;;1.75;;
33786;SDS011;29742;51.540;9.358;2023-06-10T21:33:12;1.30;;;1.20;;
33786;SDS011;29742;51.540;9.358;2023-06-10T21:38:12;1.58;;;1.48;;
33786;SDS011;29742;51.540;9.358;2023-06-10T21:43:13;1.42;;;1.30;;
33786;SDS011;29742;51.540;9.358;2023-06-10T21:48:13;1.60;;;1.30;;
33786;SDS011;29742;51.540;9.358;2023-06-10T21:53:13;1.55;;;1.42;;
33786;SDS011;29742;51.540;9.358;2023-06-10T21:58:14;1.52;;;1.42;;
33786;SDS011;29742;51.540;9.358;2023-06-10T22:03:14;1.60;;;1.30;;
33786;SDS011;29742;51.540;9.358;2023-06-10T22:08:15;1.30;;;1.20;;
33786;SDS011;29742;51.540;9.358;2023-06-10T22:13:15;1.35;;;1.25;;
33786;SDS011;29742;51.540;9.358;2023-06-10T22:18:18;1.20;;;1.10;;
33786;SDS011;29742;51.540;9.358;2023-06-10T22:23:21;1.48;;;1.33;;
33786;SDS011;29742;51.540;9.358;2023-06-10T22:28:22;1.20;;;1.10;;
33786;SDS011;29742;51.540;9.358;2023-06-10T22:33:22;1.52;;;1.20;;
33786;SDS011;29742;51.540;9.358;2023-06-10T22:38:22;2.13;;;1.60;;
33786;SDS011;29742;51.540;9.358;2023-06-10T22:43:23;1.42;;;1.33;;
33786;SDS011;29742;51.540;9.358;2023-06-10T22:48:23;1.45;;;1.25;;
33786;SDS011;29742;51.540;9.358;2023-06-10T22:53:24;1.30;;;1.13;;
33786;SDS011;29742;51.540;9.358;2023-06-10T22:58:24;1.55;;;1.42;;
33786;SDS011;29742;51.540;9.358;2023-06-10T23:03:25;1.40;;;1.30;;
33786;SDS011;29742;51.540;9.358;2023-06-10T23:08:25;1.27;;;1.17;;
33786;SDS011;29742;51.540;9.358;2023-06-10T23:13:26;1.45;;;1.25;;
33786;SDS011;29742;51.540;9.358;2023-06-10T23:18:26;1.17;;;1.08;;
33786;SDS011;29742;51.540;9.358;2023-06-10T23:23:26;1.42;;;1.27;;
33786;SDS011;29742;51.540;9.358;2023-06-10T23:28:33;1.52;;;1.25;;
33786;SDS011;29742;51.540;9.358;2023-06-10T23:33:33;1.40;;;1.23;;
33786;SDS011;29742;51.540;9.358;2023-06-10T23:38:34;1.73;;;1.05;;
33786;SDS011;29742;51.540;9.358;2023-06-10T23:43:35;1.27;;;1.17;;
33786;SDS011;29742;51.540;9.358;2023-06-10T23:48:36;1.08;;;1.02;;
33786;SDS011;29742;51.540;9.358;2023-06-10T23:53:36;1.20;;;1.10;;
33786;SDS011;29742;51.540;9.358;2023-06-10T23:58:37;1.25;;;1.15;;
